sensor_id;sensor_type;location;lat;lon;timestamp;temperature;humidity
73547;SHT30;61807;48.384;-4.386;2022-10-30T00:02:05;15.64;83.36
73547;SHT30;61807;48.384;-4.386;2022-10-30T00:04:31;15.64;83.46
73547;SHT30;61807;48.384;-4.386;2022-10-30T00:06:56;15.63;83.45
73547;SHT30;61807;48.384;-4.386;2022-10-30T00:09:22;15.64;83.47
73547;SHT30;61807;48.384;-4.386;2022-10-30T00:11:47;15.63;83.50
73547;SHT30;61807;48.384;-4.386;2022-10-30T00:14:12;15.63;83.52
73547;SHT30;61807;48.384;-4.386;2022-10-30T00:16:38;15.64;83.55
73547;SHT30;61807;48.384;-4.386;2022-10-30T00:19:03;15.61;83.69
73547;SHT30;61807;48.384;-4.386;2022-10-30T00:21:29;15.61;83.69
73547;SHT30;61807;48.384;-4.386;2022-10-30T00:23:54;15.64;83.66
73547;SHT30;61807;48.384;-4.386;2022-10-30T00:26:21;15.63;83.68
73547;SHT30;61807;48.384;-4.386;2022-10-30T00:28:51;15.64;83.76
73547;SHT30;61807;48.384;-4.386;2022-10-30T00:31:17;15.61;83.68
73547;SHT30;61807;48.384;-4.386;2022-10-30T00:33:42;15.61;83.74
73547;SHT30;61807;48.384;-4.386;2022-10-30T00:36:07;15.64;84.01
73547;SHT30;61807;48.384;-4.386;2022-10-30T00:38:33;15.61;83.92
73547;SHT30;61807;48.384;-4.386;2022-10-30T00:40:59;15.65;83.93
73547;SHT30;61807;48.384;-4.386;2022-10-30T00:43:38;15.68;83.92
73547;SHT30;61807;48.384;-4.386;2022-10-30T00:46:17;15.70;83.92
73547;SHT30;61807;48.384;-4.386;2022-10-30T00:48:49;15.74;83.92
73547;SHT30;61807;48.384;-4.386;2022-10-30T00:51:17;15.75;83.88
73547;SHT30;61807;48.384;-4.386;2022-10-30T00:53:43;15.74;83.84
73547;SHT30;61807;48.384;-4.386;2022-10-30T00:56:10;15.75;83.88
73547;SHT30;61807;48.384;-4.386;2022-10-30T00:58:40;15.75;83.87
73547;SHT30;61807;48.384;-4.386;2022-10-30T01:01:08;15.77;83.81
73547;SHT30;61807;48.384;-4.386;2022-10-30T01:03:36;15.80;83.82
73547;SHT30;61807;48.384;-4.386;2022-10-30T01:06:05;15.81;83.76
73547;SHT30;61807;48.384;-4.386;2022-10-30T01:08:32;15.83;83.82
73547;SHT30;61807;48.384;-4.386;2022-10-30T01:10:59;15.84;83.86
73547;SHT30;61807;48.384;-4.386;2022-10-30T01:13:27;15.84;83.86
73547;SHT30;61807;48.384;-4.386;2022-10-30T01:16:04;15.84;83.85
73547;SHT30;61807;48.384;-4.386;2022-10-30T01:18:48;15.83;83.81
73547;SHT30;61807;48.384;-4.386;2022-10-30T01:35:39;15.91;83.94
73547;SHT30;61807;48.384;-4.386;2022-10-30T01:38:30;15.93;83.97
73547;SHT30;61807;48.384;-4.386;2022-10-30T01:40:56;15.91;83.97
73547;SHT30;61807;48.384;-4.386;2022-10-30T01:43:21;15.94;83.96
73547;SHT30;61807;48.384;-4.386;2022-10-30T01:52:07;15.97;83.91
73547;SHT30;61807;48.384;-4.386;2022-10-30T01:55:03;15.97;83.82
73547;SHT30;61807;48.384;-4.386;2022-10-30T01:57:53;16.00;83.89
73547;SHT30;61807;48.384;-4.386;2022-10-30T02:00:20;15.97;83.91
73547;SHT30;61807;48.384;-4.386;2022-10-30T02:02:49;15.95;83.95
73547;SHT30;61807;48.384;-4.386;2022-10-30T02:05:41;16.00;84.05
73547;SHT30;61807;48.384;-4.386;2022-10-30T02:08:07;16.00;84.03
73547;SHT30;61807;48.384;-4.386;2022-10-30T02:10:34;16.00;84.14
73547;SHT30;61807;48.384;-4.386;2022-10-30T02:13:01;16.01;84.08
73547;SHT30;61807;48.384;-4.386;2022-10-30T02:15:26;16.00;84.10
73547;SHT30;61807;48.384;-4.386;2022-10-30T02:17:53;16.04;84.10
73547;SHT30;61807;48.384;-4.386;2022-10-30T02:20:19;16.04;84.10
73547;SHT30;61807;48.384;-4.386;2022-10-30T02:22:45;16.02;84.13
73547;SHT30;61807;48.384;-4.386;2022-10-30T02:25:11;16.06;84.12
73547;SHT30;61807;48.384;-4.386;2022-10-30T02:27:36;16.09;84.16
73547;SHT30;61807;48.384;-4.386;2022-10-30T02:30:02;16.09;84.14
73547;SHT30;61807;48.384;-4.386;2022-10-30T02:32:28;16.14;84.12
73547;SHT30;61807;48.384;-4.386;2022-10-30T02:34:53;16.15;84.14
73547;SHT30;61807;48.384;-4.386;2022-10-30T02:37:18;16.16;84.11
73547;SHT30;61807;48.384;-4.386;2022-10-30T02:39:44;16.19;84.09
73547;SHT30;61807;48.384;-4.386;2022-10-30T02:42:09;16.18;84.06
73547;SHT30;61807;48.384;-4.386;2022-10-30T02:44:35;16.18;84.04
73547;SHT30;61807;48.384;-4.386;2022-10-30T02:47:01;16.18;84.07
73547;SHT30;61807;48.384;-4.386;2022-10-30T02:49:26;16.18;84.08
73547;SHT30;61807;48.384;-4.386;2022-10-30T02:51:51;16.16;84.04
73547;SHT30;61807;48.384;-4.386;2022-10-30T02:54:17;16.18;84.08
73547;SHT30;61807;48.384;-4.386;2022-10-30T02:56:42;16.21;83.98
73547;SHT30;61807;48.384;-4.386;2022-10-30T02:59:07;16.18;83.90
73547;SHT30;61807;48.384;-4.386;2022-10-30T03:01:33;16.21;83.88
73547;SHT30;61807;48.384;-4.386;2022-10-30T03:03:58;16.19;83.85
73547;SHT30;61807;48.384;-4.386;2022-10-30T03:06:24;16.21;83.81
73547;SHT30;61807;48.384;-4.386;2022-10-30T03:08:49;16.21;83.78
73547;SHT30;61807;48.384;-4.386;2022-10-30T03:11:16;16.19;83.70
73547;SHT30;61807;48.384;-4.386;2022-10-30T03:13:44;16.22;83.69
73547;SHT30;61807;48.384;-4.386;2022-10-30T03:16:17;16.22;83.59
73547;SHT30;61807;48.384;-4.386;2022-10-30T03:18:43;16.19;83.52
73547;SHT30;61807;48.384;-4.386;2022-10-30T03:21:11;16.18;83.43
73547;SHT30;61807;48.384;-4.386;2022-10-30T03:23:37;16.16;83.39
73547;SHT30;61807;48.384;-4.386;2022-10-30T03:26:03;16.19;83.44
73547;SHT30;61807;48.384;-4.386;2022-10-30T03:28:30;16.18;83.37
73547;SHT30;61807;48.384;-4.386;2022-10-30T03:31:04;16.15;83.35
73547;SHT30;61807;48.384;-4.386;2022-10-30T03:33:30;16.15;83.34
73547;SHT30;61807;48.384;-4.386;2022-10-30T03:35:56;16.15;83.36
73547;SHT30;61807;48.384;-4.386;2022-10-30T03:38:21;16.14;83.28
73547;SHT30;61807;48.384;-4.386;2022-10-30T03:40:47;16.12;83.31
73547;SHT30;61807;48.384;-4.386;2022-10-30T03:43:13;16.14;83.26
73547;SHT30;61807;48.384;-4.386;2022-10-30T03:45:38;16.16;83.21
73547;SHT30;61807;48.384;-4.386;2022-10-30T03:48:05;16.15;83.08
73547;SHT30;61807;48.384;-4.386;2022-10-30T03:50:31;16.12;83.16
73547;SHT30;61807;48.384;-4.386;2022-10-30T03:52:57;16.14;83.08
73547;SHT30;61807;48.384;-4.386;2022-10-30T03:55:23;16.15;83.10
73547;SHT30;61807;48.384;-4.386;2022-10-30T03:57:49;16.14;83.01
73547;SHT30;61807;48.384;-4.386;2022-10-30T04:00:16;16.11;83.02
73547;SHT30;61807;48.384;-4.386;2022-10-30T04:02:49;16.11;82.94
73547;SHT30;61807;48.384;-4.386;2022-10-30T04:05:17;16.12;82.91
73547;SHT30;61807;48.384;-4.386;2022-10-30T04:07:44;16.12;82.92
73547;SHT30;61807;48.384;-4.386;2022-10-30T04:10:10;16.09;82.96
73547;SHT30;61807;48.384;-4.386;2022-10-30T04:12:36;16.06;82.78
73547;SHT30;61807;48.384;-4.386;2022-10-30T04:15:02;16.06;82.83
73547;SHT30;61807;48.384;-4.386;2022-10-30T04:17:27;16.06;82.73
73547;SHT30;61807;48.384;-4.386;2022-10-30T04:19:53;16.09;82.73
73547;SHT30;61807;48.384;-4.386;2022-10-30T04:22:18;16.06;82.59
73547;SHT30;61807;48.384;-4.386;2022-10-30T04:24:44;16.08;82.55
73547;SHT30;61807;48.384;-4.386;2022-10-30T04:27:10;16.05;82.56
73547;SHT30;61807;48.384;-4.386;2022-10-30T04:29:37;16.06;82.52
73547;SHT30;61807;48.384;-4.386;2022-10-30T04:32:03;16.05;82.54
73547;SHT30;61807;48.384;-4.386;2022-10-30T04:34:28;16.05;82.45
73547;SHT30;61807;48.384;-4.386;2022-10-30T04:36:53;16.02;82.44
73547;SHT30;61807;48.384;-4.386;2022-10-30T04:39:19;16.02;82.46
73547;SHT30;61807;48.384;-4.386;2022-10-30T04:41:45;16.02;82.41
73547;SHT30;61807;48.384;-4.386;2022-10-30T04:44:10;16.04;82.44
73547;SHT30;61807;48.384;-4.386;2022-10-30T04:46:36;16.01;82.41
73547;SHT30;61807;48.384;-4.386;2022-10-30T04:49:01;16.01;82.39
73547;SHT30;61807;48.384;-4.386;2022-10-30T04:51:26;16.02;82.33
73547;SHT30;61807;48.384;-4.386;2022-10-30T04:53:52;16.00;82.42
73547;SHT30;61807;48.384;-4.386;2022-10-30T04:56:18;16.00;82.44
73547;SHT30;61807;48.384;-4.386;2022-10-30T04:58:43;16.01;82.41
73547;SHT30;61807;48.384;-4.386;2022-10-30T05:01:09;16.00;82.28
73547;SHT30;61807;48.384;-4.386;2022-10-30T05:03:34;16.01;82.31
73547;SHT30;61807;48.384;-4.386;2022-10-30T05:06:05;16.00;82.32
73547;SHT30;61807;48.384;-4.386;2022-10-30T05:08:31;16.00;82.27
73547;SHT30;61807;48.384;-4.386;2022-10-30T05:10:57;15.98;82.24
73547;SHT30;61807;48.384;-4.386;2022-10-30T05:13:23;15.98;82.24
73547;SHT30;61807;48.384;-4.386;2022-10-30T05:15:49;15.98;82.29
73547;SHT30;61807;48.384;-4.386;2022-10-30T05:18:14;15.98;82.28
73547;SHT30;61807;48.384;-4.386;2022-10-30T05:20:40;15.98;82.31
73547;SHT30;61807;48.384;-4.386;2022-10-30T05:23:05;15.98;82.30
73547;SHT30;61807;48.384;-4.386;2022-10-30T05:25:31;15.97;82.33
73547;SHT30;61807;48.384;-4.386;2022-10-30T05:28:04;15.95;82.35
73547;SHT30;61807;48.384;-4.386;2022-10-30T05:30:32;15.95;82.38
73547;SHT30;61807;48.384;-4.386;2022-10-30T05:33:05;15.97;82.43
73547;SHT30;61807;48.384;-4.386;2022-10-30T05:35:32;15.98;82.49
73547;SHT30;61807;48.384;-4.386;2022-10-30T05:37:58;15.95;82.50
73547;SHT30;61807;48.384;-4.386;2022-10-30T05:40:24;16.00;82.51
73547;SHT30;61807;48.384;-4.386;2022-10-30T05:42:50;16.01;82.53
73547;SHT30;61807;48.384;-4.386;2022-10-30T05:45:16;16.00;82.52
73547;SHT30;61807;48.384;-4.386;2022-10-30T05:47:42;15.95;82.56
73547;SHT30;61807;48.384;-4.386;2022-10-30T05:50:08;15.95;82.58
73547;SHT30;61807;48.384;-4.386;2022-10-30T05:52:34;15.93;82.63
73547;SHT30;61807;48.384;-4.386;2022-10-30T05:55:00;15.93;82.67
73547;SHT30;61807;48.384;-4.386;2022-10-30T05:57:28;15.93;82.70
73547;SHT30;61807;48.384;-4.386;2022-10-30T05:59:55;15.91;82.64
73547;SHT30;61807;48.384;-4.386;2022-10-30T06:02:20;15.93;82.66
73547;SHT30;61807;48.384;-4.386;2022-10-30T06:04:46;15.91;82.64
73547;SHT30;61807;48.384;-4.386;2022-10-30T06:07:12;15.91;82.62
73547;SHT30;61807;48.384;-4.386;2022-10-30T06:09:37;15.90;82.62
73547;SHT30;61807;48.384;-4.386;2022-10-30T06:12:03;15.88;82.55
73547;SHT30;61807;48.384;-4.386;2022-10-30T06:14:28;15.90;82.53
73547;SHT30;61807;48.384;-4.386;2022-10-30T06:16:53;15.91;82.48
73547;SHT30;61807;48.384;-4.386;2022-10-30T06:19:19;15.88;82.41
73547;SHT30;61807;48.384;-4.386;2022-10-30T06:21:45;15.90;82.41
73547;SHT30;61807;48.384;-4.386;2022-10-30T06:24:11;15.88;82.42
73547;SHT30;61807;48.384;-4.386;2022-10-30T06:26:36;15.88;82.38
73547;SHT30;61807;48.384;-4.386;2022-10-30T06:29:01;15.88;82.36
73547;SHT30;61807;48.384;-4.386;2022-10-30T06:31:27;15.85;82.38
73547;SHT30;61807;48.384;-4.386;2022-10-30T06:33:52;15.85;82.35
73547;SHT30;61807;48.384;-4.386;2022-10-30T06:36:17;15.84;82.41
73547;SHT30;61807;48.384;-4.386;2022-10-30T06:38:43;15.84;82.44
73547;SHT30;61807;48.384;-4.386;2022-10-30T06:41:08;15.84;82.43
73547;SHT30;61807;48.384;-4.386;2022-10-30T06:43:34;15.81;82.49
73547;SHT30;61807;48.384;-4.386;2022-10-30T06:46:00;15.81;82.51
73547;SHT30;61807;48.384;-4.386;2022-10-30T06:48:25;15.78;82.51
73547;SHT30;61807;48.384;-4.386;2022-10-30T06:50:58;15.78;82.48
73547;SHT30;61807;48.384;-4.386;2022-10-30T06:53:24;15.80;82.46
73547;SHT30;61807;48.384;-4.386;2022-10-30T06:56:08;15.81;82.45
73547;SHT30;61807;48.384;-4.386;2022-10-30T06:58:34;15.80;82.51
73547;SHT30;61807;48.384;-4.386;2022-10-30T07:01:04;15.78;82.48
73547;SHT30;61807;48.384;-4.386;2022-10-30T07:03:30;15.78;82.50
73547;SHT30;61807;48.384;-4.386;2022-10-30T07:05:55;15.81;82.52
73547;SHT30;61807;48.384;-4.386;2022-10-30T07:08:20;15.81;82.55
73547;SHT30;61807;48.384;-4.386;2022-10-30T07:10:46;15.81;82.52
73547;SHT30;61807;48.384;-4.386;2022-10-30T07:13:11;15.81;82.58
73547;SHT30;61807;48.384;-4.386;2022-10-30T07:15:36;15.83;82.58
73547;SHT30;61807;48.384;-4.386;2022-10-30T07:18:03;15.80;82.61
73547;SHT30;61807;48.384;-4.386;2022-10-30T07:22:56;15.81;82.74
73547;SHT30;61807;48.384;-4.386;2022-10-30T07:25:22;15.84;82.73
73547;SHT30;61807;48.384;-4.386;2022-10-30T07:27:49;15.88;82.69
73547;SHT30;61807;48.384;-4.386;2022-10-30T07:30:17;15.88;82.68
73547;SHT30;61807;48.384;-4.386;2022-10-30T07:32:42;15.91;82.63
73547;SHT30;61807;48.384;-4.386;2022-10-30T07:35:10;15.91;82.57
73547;SHT30;61807;48.384;-4.386;2022-10-30T07:37:36;15.97;82.53
73547;SHT30;61807;48.384;-4.386;2022-10-30T07:40:02;15.98;82.47
73547;SHT30;61807;48.384;-4.386;2022-10-30T07:42:27;16.00;82.41
73547;SHT30;61807;48.384;-4.386;2022-10-30T07:44:53;16.00;82.34
73547;SHT30;61807;48.384;-4.386;2022-10-30T07:47:18;16.01;82.21
73547;SHT30;61807;48.384;-4.386;2022-10-30T07:49:44;16.04;82.16
73547;SHT30;61807;48.384;-4.386;2022-10-30T07:52:09;16.05;82.14
73547;SHT30;61807;48.384;-4.386;2022-10-30T07:54:34;16.05;82.10
73547;SHT30;61807;48.384;-4.386;2022-10-30T07:57:00;16.06;82.14
73547;SHT30;61807;48.384;-4.386;2022-10-30T07:59:25;16.06;82.16
73547;SHT30;61807;48.384;-4.386;2022-10-30T08:01:50;16.09;82.16
73547;SHT30;61807;48.384;-4.386;2022-10-30T08:04:16;16.11;82.17
73547;SHT30;61807;48.384;-4.386;2022-10-30T08:06:42;16.12;82.18
73547;SHT30;61807;48.384;-4.386;2022-10-30T08:09:08;16.11;82.16
73547;SHT30;61807;48.384;-4.386;2022-10-30T08:11:33;16.14;82.14
73547;SHT30;61807;48.384;-4.386;2022-10-30T08:13:59;16.14;82.08
73547;SHT30;61807;48.384;-4.386;2022-10-30T08:16:25;16.14;81.93
73547;SHT30;61807;48.384;-4.386;2022-10-30T08:18:50;16.14;82.00
73547;SHT30;61807;48.384;-4.386;2022-10-30T08:21:16;16.18;81.91
73547;SHT30;61807;48.384;-4.386;2022-10-30T08:23:41;16.19;81.90
73547;SHT30;61807;48.384;-4.386;2022-10-30T08:26:07;16.25;81.86
73547;SHT30;61807;48.384;-4.386;2022-10-30T08:28:32;16.30;81.73
73547;SHT30;61807;48.384;-4.386;2022-10-30T08:30:58;16.32;81.74
73547;SHT30;61807;48.384;-4.386;2022-10-30T08:33:24;16.35;81.60
73547;SHT30;61807;48.384;-4.386;2022-10-30T08:35:51;16.39;81.52
73547;SHT30;61807;48.384;-4.386;2022-10-30T08:38:17;16.43;81.54
73547;SHT30;61807;48.384;-4.386;2022-10-30T08:40:43;16.43;81.42
73547;SHT30;61807;48.384;-4.386;2022-10-30T08:43:08;16.42;81.41
73547;SHT30;61807;48.384;-4.386;2022-10-30T08:45:34;16.45;81.27
73547;SHT30;61807;48.384;-4.386;2022-10-30T08:48:01;16.41;81.34
73547;SHT30;61807;48.384;-4.386;2022-10-30T08:50:31;16.38;81.28
73547;SHT30;61807;48.384;-4.386;2022-10-30T08:53:02;16.38;81.29
73547;SHT30;61807;48.384;-4.386;2022-10-30T08:55:28;16.35;81.19
73547;SHT30;61807;48.384;-4.386;2022-10-30T08:57:53;16.30;80.97
73547;SHT30;61807;48.384;-4.386;2022-10-30T09:00:19;16.26;80.79
73547;SHT30;61807;48.384;-4.386;2022-10-30T09:02:44;16.25;80.95
73547;SHT30;61807;48.384;-4.386;2022-10-30T09:05:10;16.22;81.14
73547;SHT30;61807;48.384;-4.386;2022-10-30T09:07:35;16.21;81.15
73547;SHT30;61807;48.384;-4.386;2022-10-30T09:10:01;16.18;81.13
73547;SHT30;61807;48.384;-4.386;2022-10-30T09:12:27;16.15;81.07
73547;SHT30;61807;48.384;-4.386;2022-10-30T09:14:52;16.12;80.95
73547;SHT30;61807;48.384;-4.386;2022-10-30T09:17:17;16.12;80.98
73547;SHT30;61807;48.384;-4.386;2022-10-30T09:19:43;16.09;80.93
73547;SHT30;61807;48.384;-4.386;2022-10-30T09:22:08;16.15;81.09
73547;SHT30;61807;48.384;-4.386;2022-10-30T09:24:34;16.21;81.15
73547;SHT30;61807;48.384;-4.386;2022-10-30T09:26:59;16.29;81.12
73547;SHT30;61807;48.384;-4.386;2022-10-30T09:29:24;16.39;80.99
73547;SHT30;61807;48.384;-4.386;2022-10-30T09:31:50;16.52;80.99
73547;SHT30;61807;48.384;-4.386;2022-10-30T09:34:15;16.59;80.97
73547;SHT30;61807;48.384;-4.386;2022-10-30T09:36:41;16.66;80.72
73547;SHT30;61807;48.384;-4.386;2022-10-30T09:39:08;16.74;80.62
73547;SHT30;61807;48.384;-4.386;2022-10-30T09:52:29;17.17;79.62
73547;SHT30;61807;48.384;-4.386;2022-10-30T10:00:36;17.62;79.42
73547;SHT30;61807;48.384;-4.386;2022-10-30T10:05:52;18.40;79.11
73547;SHT30;61807;48.384;-4.386;2022-10-30T10:08:22;18.79;78.52
73547;SHT30;61807;48.384;-4.386;2022-10-30T10:10:57;19.16;77.34
73547;SHT30;61807;48.384;-4.386;2022-10-30T10:13:43;19.30;75.16
73547;SHT30;61807;48.384;-4.386;2022-10-30T10:21:35;19.15;74.31
73547;SHT30;61807;48.384;-4.386;2022-10-30T10:24:24;18.98;73.54
73547;SHT30;61807;48.384;-4.386;2022-10-30T10:42:59;18.72;73.56
73547;SHT30;61807;48.384;-4.386;2022-10-30T10:48:34;18.64;73.70
73547;SHT30;61807;48.384;-4.386;2022-10-30T10:51:16;18.62;73.57
73547;SHT30;61807;48.384;-4.386;2022-10-30T10:53:54;18.54;73.18
73547;SHT30;61807;48.384;-4.386;2022-10-30T10:56:28;18.44;73.97
73547;SHT30;61807;48.384;-4.386;2022-10-30T10:58:58;18.40;73.73
73547;SHT30;61807;48.384;-4.386;2022-10-30T11:01:35;18.33;73.50
73547;SHT30;61807;48.384;-4.386;2022-10-30T11:04:17;18.30;73.37
73547;SHT30;61807;48.384;-4.386;2022-10-30T11:06:50;18.31;73.91
73547;SHT30;61807;48.384;-4.386;2022-10-30T11:09:21;18.36;73.37
73547;SHT30;61807;48.384;-4.386;2022-10-30T11:11:50;18.37;74.07
73547;SHT30;61807;48.384;-4.386;2022-10-30T11:14:21;18.40;74.09
73547;SHT30;61807;48.384;-4.386;2022-10-30T11:17:24;18.37;73.92
73547;SHT30;61807;48.384;-4.386;2022-10-30T11:19:57;18.33;73.05
73547;SHT30;61807;48.384;-4.386;2022-10-30T11:22:30;18.23;72.99
73547;SHT30;61807;48.384;-4.386;2022-10-30T11:27:41;18.17;73.25
73547;SHT30;61807;48.384;-4.386;2022-10-30T11:30:20;18.30;72.27
73547;SHT30;61807;48.384;-4.386;2022-10-30T11:32:46;18.48;72.38
73547;SHT30;61807;48.384;-4.386;2022-10-30T11:35:15;18.54;71.06
73547;SHT30;61807;48.384;-4.386;2022-10-30T11:37:42;18.50;71.90
73547;SHT30;61807;48.384;-4.386;2022-10-30T11:40:17;18.59;72.08
73547;SHT30;61807;48.384;-4.386;2022-10-30T11:43:01;18.76;71.94
73547;SHT30;61807;48.384;-4.386;2022-10-30T11:45:31;18.94;71.16
73547;SHT30;61807;48.384;-4.386;2022-10-30T11:47:59;19.12;71.29
73547;SHT30;61807;48.384;-4.386;2022-10-30T11:50:29;19.27;70.88
73547;SHT30;61807;48.384;-4.386;2022-10-30T11:53:02;19.40;70.70
73547;SHT30;61807;48.384;-4.386;2022-10-30T11:55:38;19.43;69.04
73547;SHT30;61807;48.384;-4.386;2022-10-30T11:58:05;19.61;69.65
73547;SHT30;61807;48.384;-4.386;2022-10-30T12:00:36;20.08;69.78
73547;SHT30;61807;48.384;-4.386;2022-10-30T12:03:26;20.52;69.05
73547;SHT30;61807;48.384;-4.386;2022-10-30T12:06:27;20.69;65.74
73547;SHT30;61807;48.384;-4.386;2022-10-30T12:09:13;20.80;67.18
73547;SHT30;61807;48.384;-4.386;2022-10-30T12:11:40;20.67;66.80
73547;SHT30;61807;48.384;-4.386;2022-10-30T12:14:22;20.98;67.24
73547;SHT30;61807;48.384;-4.386;2022-10-30T12:16:53;21.69;65.20
73547;SHT30;61807;48.384;-4.386;2022-10-30T12:19:21;22.16;64.84
73547;SHT30;61807;48.384;-4.386;2022-10-30T12:21:49;22.47;62.71
73547;SHT30;61807;48.384;-4.386;2022-10-30T12:24:33;22.84;63.33
73547;SHT30;61807;48.384;-4.386;2022-10-30T12:27:02;23.12;63.48
73547;SHT30;61807;48.384;-4.386;2022-10-30T12:29:41;23.20;61.65
73547;SHT30;61807;48.384;-4.386;2022-10-30T12:32:14;23.02;62.26
73547;SHT30;61807;48.384;-4.386;2022-10-30T12:34:49;22.73;60.57
73547;SHT30;61807;48.384;-4.386;2022-10-30T12:40:16;22.00;61.39
73547;SHT30;61807;48.384;-4.386;2022-10-30T12:42:50;21.51;62.60
73547;SHT30;61807;48.384;-4.386;2022-10-30T12:45:22;21.15;63.25
73547;SHT30;61807;48.384;-4.386;2022-10-30T12:47:51;20.83;63.31
73547;SHT30;61807;48.384;-4.386;2022-10-30T12:50:28;20.50;63.98
73547;SHT30;61807;48.384;-4.386;2022-10-30T12:52:56;20.25;64.35
73547;SHT30;61807;48.384;-4.386;2022-10-30T12:55:36;20.02;65.16
73547;SHT30;61807;48.384;-4.386;2022-10-30T13:01:00;19.66;65.97
73547;SHT30;61807;48.384;-4.386;2022-10-30T13:03:35;19.46;66.10
73547;SHT30;61807;48.384;-4.386;2022-10-30T13:06:13;19.37;66.67
73547;SHT30;61807;48.384;-4.386;2022-10-30T13:09:14;19.31;67.07
73547;SHT30;61807;48.384;-4.386;2022-10-30T13:11:49;19.22;67.23
73547;SHT30;61807;48.384;-4.386;2022-10-30T13:14:20;19.12;67.55
73547;SHT30;61807;48.384;-4.386;2022-10-30T13:16:46;19.03;67.71
73547;SHT30;61807;48.384;-4.386;2022-10-30T13:19:12;18.99;67.74
73547;SHT30;61807;48.384;-4.386;2022-10-30T13:27:03;18.76;67.93
73547;SHT30;61807;48.384;-4.386;2022-10-30T13:29:57;18.76;68.24
73547;SHT30;61807;48.384;-4.386;2022-10-30T13:40:44;18.75;68.41
73547;SHT30;61807;48.384;-4.386;2022-10-30T13:52:13;18.65;68.45
73547;SHT30;61807;48.384;-4.386;2022-10-30T14:02:58;18.62;69.10
73547;SHT30;61807;48.384;-4.386;2022-10-30T14:10:45;18.62;69.48
73547;SHT30;61807;48.384;-4.386;2022-10-30T14:13:25;18.59;69.91
73547;SHT30;61807;48.384;-4.386;2022-10-30T14:15:58;18.59;69.84
73547;SHT30;61807;48.384;-4.386;2022-10-30T14:18:29;18.58;69.98
73547;SHT30;61807;48.384;-4.386;2022-10-30T14:20:57;18.57;70.02
73547;SHT30;61807;48.384;-4.386;2022-10-30T14:28:42;18.48;69.90
73547;SHT30;61807;48.384;-4.386;2022-10-30T14:31:13;18.45;69.85
73547;SHT30;61807;48.384;-4.386;2022-10-30T14:33:49;18.40;70.11
73547;SHT30;61807;48.384;-4.386;2022-10-30T14:39:00;18.37;70.69
73547;SHT30;61807;48.384;-4.386;2022-10-30T14:41:33;18.38;70.45
73547;SHT30;61807;48.384;-4.386;2022-10-30T14:44:05;18.31;70.54
73547;SHT30;61807;48.384;-4.386;2022-10-30T14:46:43;18.28;70.73
73547;SHT30;61807;48.384;-4.386;2022-10-30T14:52:07;18.33;71.07
73547;SHT30;61807;48.384;-4.386;2022-10-30T14:54:44;18.37;71.28
73547;SHT30;61807;48.384;-4.386;2022-10-30T15:02:57;18.48;71.09
73547;SHT30;61807;48.384;-4.386;2022-10-30T15:05:39;18.47;71.27
73547;SHT30;61807;48.384;-4.386;2022-10-30T15:13:34;18.45;71.40
73547;SHT30;61807;48.384;-4.386;2022-10-30T15:16:02;18.44;71.41
73547;SHT30;61807;48.384;-4.386;2022-10-30T15:18:29;18.44;71.44
73547;SHT30;61807;48.384;-4.386;2022-10-30T15:21:05;18.43;71.53
73547;SHT30;61807;48.384;-4.386;2022-10-30T15:23:35;18.40;71.57
73547;SHT30;61807;48.384;-4.386;2022-10-30T15:26:04;18.38;71.57
73547;SHT30;61807;48.384;-4.386;2022-10-30T15:28:32;18.37;71.53
73547;SHT30;61807;48.384;-4.386;2022-10-30T15:31:06;18.36;71.62
73547;SHT30;61807;48.384;-4.386;2022-10-30T15:33:35;18.33;71.65
73547;SHT30;61807;48.384;-4.386;2022-10-30T15:36:02;18.28;71.82
73547;SHT30;61807;48.384;-4.386;2022-10-30T15:38:28;18.24;72.05
73547;SHT30;61807;48.384;-4.386;2022-10-30T15:40:58;18.23;71.99
73547;SHT30;61807;48.384;-4.386;2022-10-30T15:43:31;18.18;72.20
73547;SHT30;61807;48.384;-4.386;2022-10-30T15:45:59;18.16;72.28
73547;SHT30;61807;48.384;-4.386;2022-10-30T15:48:27;18.10;72.34
73547;SHT30;61807;48.384;-4.386;2022-10-30T15:54:10;18.06;72.74
73547;SHT30;61807;48.384;-4.386;2022-10-30T15:56:18;17.99;72.85
73547;SHT30;61807;48.384;-4.386;2022-10-30T15:58:49;17.99;73.01
73547;SHT30;61807;48.384;-4.386;2022-10-30T16:01:45;17.96;73.10
73547;SHT30;61807;48.384;-4.386;2022-10-30T16:04:25;17.93;73.29
73547;SHT30;61807;48.384;-4.386;2022-10-30T16:09:16;17.83;73.39
73547;SHT30;61807;48.384;-4.386;2022-10-30T16:11:43;17.79;73.65
73547;SHT30;61807;48.384;-4.386;2022-10-30T16:14:13;17.75;73.63
73547;SHT30;61807;48.384;-4.386;2022-10-30T16:16:40;17.70;73.83
73547;SHT30;61807;48.384;-4.386;2022-10-30T16:19:07;17.70;73.91
73547;SHT30;61807;48.384;-4.386;2022-10-30T16:21:32;17.63;74.07
73547;SHT30;61807;48.384;-4.386;2022-10-30T16:24:01;17.63;74.21
73547;SHT30;61807;48.384;-4.386;2022-10-30T16:26:30;17.61;74.34
73547;SHT30;61807;48.384;-4.386;2022-10-30T16:29:06;17.52;74.41
73547;SHT30;61807;48.384;-4.386;2022-10-30T16:31:36;17.49;74.58
73547;SHT30;61807;48.384;-4.386;2022-10-30T16:34:03;17.41;74.62
73547;SHT30;61807;48.384;-4.386;2022-10-30T16:36:29;17.35;74.70
73547;SHT30;61807;48.384;-4.386;2022-10-30T16:38:55;17.27;74.87
73547;SHT30;61807;48.384;-4.386;2022-10-30T16:41:21;17.21;74.92
73547;SHT30;61807;48.384;-4.386;2022-10-30T16:49:23;17.04;75.21
73547;SHT30;61807;48.384;-4.386;2022-10-30T16:52:14;16.97;75.40
73547;SHT30;61807;48.384;-4.386;2022-10-30T16:54:47;16.93;75.46
73547;SHT30;61807;48.384;-4.386;2022-10-30T16:57:35;16.87;75.68
73547;SHT30;61807;48.384;-4.386;2022-10-30T17:00:02;16.83;75.78
73547;SHT30;61807;48.384;-4.386;2022-10-30T17:02:34;16.79;75.86
73547;SHT30;61807;48.384;-4.386;2022-10-30T17:05:10;16.79;76.02
73547;SHT30;61807;48.384;-4.386;2022-10-30T17:10:35;16.69;76.37
73547;SHT30;61807;48.384;-4.386;2022-10-30T17:13:30;16.66;76.50
73547;SHT30;61807;48.384;-4.386;2022-10-30T17:16:30;16.63;76.56
73547;SHT30;61807;48.384;-4.386;2022-10-30T17:21:57;16.62;76.72
73547;SHT30;61807;48.384;-4.386;2022-10-30T17:24:29;16.59;76.81
73547;SHT30;61807;48.384;-4.386;2022-10-30T17:26:58;16.56;76.88
73547;SHT30;61807;48.384;-4.386;2022-10-30T17:29:44;16.53;77.00
73547;SHT30;61807;48.384;-4.386;2022-10-30T17:32:22;16.56;77.06
73547;SHT30;61807;48.384;-4.386;2022-10-30T17:34:53;16.56;77.22
73547;SHT30;61807;48.384;-4.386;2022-10-30T17:37:19;16.55;77.36
73547;SHT30;61807;48.384;-4.386;2022-10-30T17:39:44;16.53;77.44
73547;SHT30;61807;48.384;-4.386;2022-10-30T17:42:10;16.53;77.65
73547;SHT30;61807;48.384;-4.386;2022-10-30T17:44:36;16.48;77.75
73547;SHT30;61807;48.384;-4.386;2022-10-30T17:47:18;16.46;77.85
73547;SHT30;61807;48.384;-4.386;2022-10-30T17:49:44;16.45;77.90
73547;SHT30;61807;48.384;-4.386;2022-10-30T17:52:15;16.45;78.03
73547;SHT30;61807;48.384;-4.386;2022-10-30T17:54:42;16.46;78.04
73547;SHT30;61807;48.384;-4.386;2022-10-30T17:57:11;16.42;78.41
73547;SHT30;61807;48.384;-4.386;2022-10-30T17:59:37;16.42;78.31